sensor_id;sensor_type;location;lat;lon;timestamp;pressure;altitude;pressure_sealevel;temperature;humidity
2339;BME280;1180;51.438;6.978;2023-08-06T00:00:22;99196.47;;;18.71;100.00
2339;BME280;1180;51.438;6.978;2023-08-06T00:02:49;99201.69;;;18.71;100.00
2339;BME280;1180;51.438;6.978;2023-08-06T00:05:15;99203.97;;;18.66;100.00
2339;BME280;1180;51.438;6.978;2023-08-06T00:07:47;99200.22;;;18.68;100.00
2339;BME280;1180;51.438;6.978;2023-08-06T00:10:12;99199.13;;;18.62;100.00
2339;BME280;1180;51.438;6.978;2023-08-06T00:12:38;99199.75;;;18.65;100.00
2339;BME280;1180;51.438;6.978;2023-08-06T00:15:04;99197.31;;;18.63;100.00
2339;BME280;1180;51.438;6.978;2023-08-06T00:17:30;99199.63;;;18.58;100.00
2339;BME280;1180;51.438;6.978;2023-08-06T00:19:56;99190.06;;;18.58;100.00
2339;BME280;1180;51.438;6.978;2023-08-06T00:22:22;99189.53;;;18.63;100.00
2339;BME280;1180;51.438;6.978;2023-08-06T00:24:48;99189.19;;;18.66;100.00
2339;BME280;1180;51.438;6.978;2023-08-06T00:27:14;99185.66;;;18.59;100.00
2339;BME280;1180;51.438;6.978;2023-08-06T00:29:39;99178.69;;;18.59;100.00
2339;BME280;1180;51.438;6.978;2023-08-06T00:32:05;99176.38;;;18.65;100.00
2339;BME280;1180;51.438;6.978;2023-08-06T00:34:31;99172.31;;;18.62;100.00
2339;BME280;1180;51.438;6.978;2023-08-06T00:36:57;99165.78;;;18.66;100.00
2339;BME280;1180;51.438;6.978;2023-08-06T00:39:23;99169.22;;;18.67;100.00
2339;BME280;1180;51.438;6.978;2023-08-06T00:41:49;99166.34;;;18.53;100.00
2339;BME280;1180;51.438;6.978;2023-08-06T00:44:15;99166.97;;;18.55;100.00
2339;BME280;1180;51.438;6.978;2023-08-06T00:46:40;99164.03;;;18.67;100.00
2339;BME280;1180;51.438;6.978;2023-08-06T00:49:06;99161.88;;;18.70;100.00
2339;BME280;1180;51.438;6.978;2023-08-06T00:51:33;99156.03;;;18.68;100.00
2339;BME280;1180;51.438;6.978;2023-08-06T00:53:59;99147.41;;;18.76;100.00
2339;BME280;1180;51.438;6.978;2023-08-06T00:56:25;99147.59;;;18.66;100.00
2339;BME280;1180;51.438;6.978;2023-08-06T00:58:52;99152.00;;;18.66;100.00
2339;BME280;1180;51.438;6.978;2023-08-06T01:01:18;99153.63;;;18.67;100.00
2339;BME280;1180;51.438;6.978;2023-08-06T01:03:44;99150.50;;;18.71;100.00
2339;BME280;1180;51.438;6.978;2023-08-06T01:06:10;99156.22;;;18.67;100.00
2339;BME280;1180;51.438;6.978;2023-08-06T01:13:58;99140.69;;;18.58;100.00
2339;BME280;1180;51.438;6.978;2023-08-06T01:16:25;99146.34;;;18.62;100.00
2339;BME280;1180;51.438;6.978;2023-08-06T01:18:51;99145.69;;;18.60;100.00
2339;BME280;1180;51.438;6.978;2023-08-06T01:21:18;99148.00;;;18.55;100.00
2339;BME280;1180;51.438;6.978;2023-08-06T01:23:45;99138.41;;;18.55;100.00
2339;BME280;1180;51.438;6.978;2023-08-06T01:26:38;99146.69;;;18.59;100.00
2339;BME280;1180;51.438;6.978;2023-08-06T01:29:31;99141.00;;;18.55;100.00
2339;BME280;1180;51.438;6.978;2023-08-06T01:32:01;99143.91;;;18.60;100.00
2339;BME280;1180;51.438;6.978;2023-08-06T01:34:31;99144.09;;;18.59;100.00
2339;BME280;1180;51.438;6.978;2023-08-06T01:36:57;99142.47;;;18.58;100.00
2339;BME280;1180;51.438;6.978;2023-08-06T01:39:24;99138.25;;;18.57;100.00
2339;BME280;1180;51.438;6.978;2023-08-06T01:41:50;99139.72;;;18.51;100.00
2339;BME280;1180;51.438;6.978;2023-08-06T01:44:17;99142.84;;;18.46;100.00
2339;BME280;1180;51.438;6.978;2023-08-06T01:46:43;99132.91;;;18.50;100.00
2339;BME280;1180;51.438;6.978;2023-08-06T01:49:08;99132.91;;;18.50;100.00
2339;BME280;1180;51.438;6.978;2023-08-06T01:51:34;99127.16;;;18.63;100.00
2339;BME280;1180;51.438;6.978;2023-08-06T01:54:00;99129.59;;;18.65;100.00
2339;BME280;1180;51.438;6.978;2023-08-06T01:56:26;99123.78;;;18.62;100.00
2339;BME280;1180;51.438;6.978;2023-08-06T01:58:51;99129.41;;;18.66;100.00
2339;BME280;1180;51.438;6.978;2023-08-06T02:01:17;99125.75;;;18.60;100.00
2339;BME280;1180;51.438;6.978;2023-08-06T02:03:43;99123.28;;;18.59;100.00
2339;BME280;1180;51.438;6.978;2023-08-06T02:06:09;99123.78;;;18.62;100.00
2339;BME280;1180;51.438;6.978;2023-08-06T02:08:35;99120.22;;;18.55;100.00
2339;BME280;1180;51.438;6.978;2023-08-06T02:11:01;99120.06;;;18.57;100.00
2339;BME280;1180;51.438;6.978;2023-08-06T02:13:28;99118.59;;;18.54;100.00
2339;BME280;1180;51.438;6.978;2023-08-06T02:15:53;99116.53;;;18.50;100.00
2339;BME280;1180;51.438;6.978;2023-08-06T02:18:19;99116.06;;;18.46;100.00
2339;BME280;1180;51.438;6.978;2023-08-06T02:20:57;99106.44;;;18.55;100.00
2339;BME280;1180;51.438;6.978;2023-08-06T02:23:24;99110.78;;;18.62;100.00
2339;BME280;1180;51.438;6.978;2023-08-06T02:26:04;99110.16;;;18.60;100.00
2339;BME280;1180;51.438;6.978;2023-08-06T02:28:33;99110.44;;;18.66;100.00
2339;BME280;1180;51.438;6.978;2023-08-06T02:30:58;99102.47;;;18.67;100.00
2339;BME280;1180;51.438;6.978;2023-08-06T02:33:24;99100.91;;;18.58;100.00
2339;BME280;1180;51.438;6.978;2023-08-06T02:35:50;99103.50;;;18.58;100.00
2339;BME280;1180;51.438;6.978;2023-08-06T02:38:16;99101.94;;;18.48;100.00
2339;BME280;1180;51.438;6.978;2023-08-06T02:40:45;99097.88;;;18.46;100.00
2339;BME280;1180;51.438;6.978;2023-08-06T02:43:12;99099.16;;;18.50;100.00
2339;BME280;1180;51.438;6.978;2023-08-06T02:45:37;99089.28;;;18.45;100.00
2339;BME280;1180;51.438;6.978;2023-08-06T02:48:03;99089.78;;;18.41;100.00
2339;BME280;1180;51.438;6.978;2023-08-06T02:50:29;99085.53;;;18.48;100.00
2339;BME280;1180;51.438;6.978;2023-08-06T02:52:55;99091.69;;;18.47;100.00
2339;BME280;1180;51.438;6.978;2023-08-06T02:55:20;99082.63;;;18.43;100.00
2339;BME280;1180;51.438;6.978;2023-08-06T02:57:46;99083.81;;;18.32;100.00
2339;BME280;1180;51.438;6.978;2023-08-06T03:00:12;99085.91;;;18.37;100.00
2339;BME280;1180;51.438;6.978;2023-08-06T03:02:37;99081.53;;;18.37;100.00
2339;BME280;1180;51.438;6.978;2023-08-06T03:05:03;99077.78;;;18.40;100.00
2339;BME280;1180;51.438;6.978;2023-08-06T03:07:31;99079.06;;;18.44;100.00
2339;BME280;1180;51.438;6.978;2023-08-06T03:09:59;99060.09;;;18.35;100.00
2339;BME280;1180;51.438;6.978;2023-08-06T03:12:26;99066.28;;;18.34;100.00
2339;BME280;1180;51.438;6.978;2023-08-06T03:14:52;99062.41;;;18.30;100.00
2339;BME280;1180;51.438;6.978;2023-08-06T03:17:18;99069.06;;;18.32;100.00
2339;BME280;1180;51.438;6.978;2023-08-06T03:19:44;99066.13;;;18.36;100.00
2339;BME280;1180;51.438;6.978;2023-08-06T03:22:10;99064.31;;;18.36;100.00
2339;BME280;1180;51.438;6.978;2023-08-06T03:24:36;99061.72;;;18.36;100.00
2339;BME280;1180;51.438;6.978;2023-08-06T03:27:01;99063.03;;;18.32;100.00
2339;BME280;1180;51.438;6.978;2023-08-06T03:29:27;99068.13;;;18.25;100.00
2339;BME280;1180;51.438;6.978;2023-08-06T03:31:53;99064.22;;;18.21;100.00
2339;BME280;1180;51.438;6.978;2023-08-06T03:34:19;99060.56;;;18.15;100.00
2339;BME280;1180;51.438;6.978;2023-08-06T03:36:45;99069.56;;;18.28;100.00
2339;BME280;1180;51.438;6.978;2023-08-06T03:39:11;99065.53;;;18.25;100.00
2339;BME280;1180;51.438;6.978;2023-08-06T03:41:37;99056.59;;;18.28;100.00
2339;BME280;1180;51.438;6.978;2023-08-06T03:44:03;99061.09;;;18.34;100.00
2339;BME280;1180;51.438;6.978;2023-08-06T03:46:29;99058.16;;;18.37;100.00
2339;BME280;1180;51.438;6.978;2023-08-06T03:48:59;99050.06;;;18.32;100.00
2339;BME280;1180;51.438;6.978;2023-08-06T03:51:25;99051.44;;;18.19;100.00
2339;BME280;1180;51.438;6.978;2023-08-06T03:53:51;99056.44;;;18.21;100.00
2339;BME280;1180;51.438;6.978;2023-08-06T03:56:17;99054.81;;;18.20;100.00
2339;BME280;1180;51.438;6.978;2023-08-06T03:58:42;99053.34;;;18.26;100.00
2339;BME280;1180;51.438;6.978;2023-08-06T04:01:08;99053.47;;;18.32;100.00
2339;BME280;1180;51.438;6.978;2023-08-06T04:03:34;99052.50;;;18.33;100.00
2339;BME280;1180;51.438;6.978;2023-08-06T04:06:00;99047.13;;;18.35;100.00
2339;BME280;1180;51.438;6.978;2023-08-06T04:08:27;99053.13;;;18.36;100.00
2339;BME280;1180;51.438;6.978;2023-08-06T04:10:53;99059.13;;;18.36;100.00
2339;BME280;1180;51.438;6.978;2023-08-06T04:13:18;99058.97;;;18.38;100.00
2339;BME280;1180;51.438;6.978;2023-08-06T04:15:45;99053.47;;;18.32;100.00
2339;BME280;1180;51.438;6.978;2023-08-06T04:18:10;99049.09;;;18.33;100.00
2339;BME280;1180;51.438;6.978;2023-08-06T04:20:43;99048.41;;;18.39;100.00
2339;BME280;1180;51.438;6.978;2023-08-06T04:23:10;99045.94;;;18.46;100.00
2339;BME280;1180;51.438;6.978;2023-08-06T04:25:36;99049.84;;;18.42;100.00
2339;BME280;1180;51.438;6.978;2023-08-06T04:28:01;99046.47;;;18.41;100.00
2339;BME280;1180;51.438;6.978;2023-08-06T04:30:27;99045.28;;;18.44;100.00
2339;BME280;1180;51.438;6.978;2023-08-06T04:32:53;99046.47;;;18.41;100.00
2339;BME280;1180;51.438;6.978;2023-08-06T04:35:19;99048.41;;;18.39;100.00
2339;BME280;1180;51.438;6.978;2023-08-06T04:37:45;99046.13;;;18.36;100.00
2339;BME280;1180;51.438;6.978;2023-08-06T04:40:11;99047.59;;;18.39;100.00
2339;BME280;1180;51.438;6.978;2023-08-06T04:42:36;99044.16;;;18.46;100.00
2339;BME280;1180;51.438;6.978;2023-08-06T04:45:03;99044.59;;;18.50;100.00
2339;BME280;1180;51.438;6.978;2023-08-06T04:47:29;99046.53;;;18.56;100.00
2339;BME280;1180;51.438;6.978;2023-08-06T04:49:55;99050.28;;;18.54;100.00
2339;BME280;1180;51.438;6.978;2023-08-06T04:52:21;99053.22;;;18.51;100.00
2339;BME280;1180;51.438;6.978;2023-08-06T04:54:47;99058.78;;;18.39;100.00
2339;BME280;1180;51.438;6.978;2023-08-06T04:57:13;99050.31;;;18.45;100.00
2339;BME280;1180;51.438;6.978;2023-08-06T04:59:39;99056.59;;;18.51;100.00
2339;BME280;1180;51.438;6.978;2023-08-06T05:02:05;99059.84;;;18.53;100.00
2339;BME280;1180;51.438;6.978;2023-08-06T05:04:31;99065.44;;;18.65;100.00
2339;BME280;1180;51.438;6.978;2023-08-06T05:06:56;99059.75;;;18.70;100.00
2339;BME280;1180;51.438;6.978;2023-08-06T05:09:22;99057.50;;;18.67;100.00
2339;BME280;1180;51.438;6.978;2023-08-06T05:11:49;99046.56;;;18.71;100.00
2339;BME280;1180;51.438;6.978;2023-08-06T05:14:15;99051.72;;;18.80;100.00
2339;BME280;1180;51.438;6.978;2023-08-06T05:16:40;99056.38;;;18.84;100.00
2339;BME280;1180;51.438;6.978;2023-08-06T05:19:06;99061.22;;;18.87;100.00
2339;BME280;1180;51.438;6.978;2023-08-06T05:21:32;99063.31;;;18.92;100.00
2339;BME280;1180;51.438;6.978;2023-08-06T05:23:57;99065.91;;;18.92;100.00
2339;BME280;1180;51.438;6.978;2023-08-06T05:26:23;99064.75;;;18.95;100.00
2339;BME280;1180;51.438;6.978;2023-08-06T05:28:49;99070.94;;;18.94;100.00
2339;BME280;1180;51.438;6.978;2023-08-06T05:31:15;99076.88;;;19.02;100.00
2339;BME280;1180;51.438;6.978;2023-08-06T05:33:41;99078.84;;;19.00;100.00
2339;BME280;1180;51.438;6.978;2023-08-06T05:36:07;99075.13;;;19.03;100.00
2339;BME280;1180;51.438;6.978;2023-08-06T05:38:33;99081.28;;;19.02;100.00
2339;BME280;1180;51.438;6.978;2023-08-06T05:40:58;99079.69;;;19.01;100.00
2339;BME280;1180;51.438;6.978;2023-08-06T05:43:24;99084.56;;;18.96;100.00
2339;BME280;1180;51.438;6.978;2023-08-06T05:45:50;99083.53;;;19.05;100.00
2339;BME280;1180;51.438;6.978;2023-08-06T05:48:16;99087.25;;;19.11;100.00
2339;BME280;1180;51.438;6.978;2023-08-06T05:50:42;99088.22;;;19.10;100.00
2339;BME280;1180;51.438;6.978;2023-08-06T05:53:08;99088.41;;;19.08;100.00
2339;BME280;1180;51.438;6.978;2023-08-06T05:55:34;99100.53;;;19.16;100.00
2339;BME280;1180;51.438;6.978;2023-08-06T05:57:59;99089.94;;;19.17;100.00
2339;BME280;1180;51.438;6.978;2023-08-06T06:00:25;99085.19;;;19.21;100.00
2339;BME280;1180;51.438;6.978;2023-08-06T06:02:50;99088.94;;;19.18;100.00
2339;BME280;1180;51.438;6.978;2023-08-06T06:05:16;99098.66;;;19.25;100.00
2339;BME280;1180;51.438;6.978;2023-08-06T06:07:42;99098.59;;;19.33;100.00
2339;BME280;1180;51.438;6.978;2023-08-06T06:10:08;99100.22;;;19.34;100.00
2339;BME280;1180;51.438;6.978;2023-08-06T06:12:34;99100.84;;;19.36;100.00
2339;BME280;1180;51.438;6.978;2023-08-06T06:15:00;99097.72;;;19.41;100.00
2339;BME280;1180;51.438;6.978;2023-08-06T06:17:26;99097.34;;;19.44;100.00
2339;BME280;1180;51.438;6.978;2023-08-06T06:19:52;99098.41;;;19.49;100.00
2339;BME280;1180;51.438;6.978;2023-08-06T06:22:21;99100.84;;;19.51;100.00
2339;BME280;1180;51.438;6.978;2023-08-06T06:24:46;99103.25;;;19.53;100.00
2339;BME280;1180;51.438;6.978;2023-08-06T06:27:12;99105.06;;;19.52;100.00
2339;BME280;1180;51.438;6.978;2023-08-06T06:29:38;99108.16;;;19.56;100.00
2339;BME280;1180;51.438;6.978;2023-08-06T06:32:04;99104.19;;;19.60;99.40
2339;BME280;1180;51.438;6.978;2023-08-06T06:34:30;99110.66;;;19.64;99.60
2339;BME280;1180;51.438;6.978;2023-08-06T06:36:55;99118.38;;;19.72;97.87
2339;BME280;1180;51.438;6.978;2023-08-06T06:39:21;99117.84;;;19.77;96.24
2339;BME280;1180;51.438;6.978;2023-08-06T06:41:47;99118.28;;;19.81;95.85
2339;BME280;1180;51.438;6.978;2023-08-06T06:44:13;99122.59;;;19.88;96.77
2339;BME280;1180;51.438;6.978;2023-08-06T06:46:40;99121.91;;;19.95;96.14
2339;BME280;1180;51.438;6.978;2023-08-06T06:49:06;99113.72;;;19.98;96.33
2339;BME280;1180;51.438;6.978;2023-08-06T06:51:32;99120.38;;;20.00;95.40
2339;BME280;1180;51.438;6.978;2023-08-06T06:53:58;99121.00;;;20.02;95.67
2339;BME280;1180;51.438;6.978;2023-08-06T06:56:24;99114.81;;;20.03;95.56
2339;BME280;1180;51.438;6.978;2023-08-06T06:58:49;99118.03;;;20.05;95.05
2339;BME280;1180;51.438;6.978;2023-08-06T07:01:15;99119.66;;;20.06;94.53
2339;BME280;1180;51.438;6.978;2023-08-06T07:03:41;99116.78;;;20.01;92.27
2339;BME280;1180;51.438;6.978;2023-08-06T07:06:07;99117.78;;;20.00;89.93
2339;BME280;1180;51.438;6.978;2023-08-06T07:08:32;99115.81;;;20.02;92.38
2339;BME280;1180;51.438;6.978;2023-08-06T07:11:06;99115.44;;;20.05;94.19
2339;BME280;1180;51.438;6.978;2023-08-06T07:13:33;99123.50;;;20.11;93.51
2339;BME280;1180;51.438;6.978;2023-08-06T07:15:59;99124.75;;;20.15;93.17
2339;BME280;1180;51.438;6.978;2023-08-06T07:18:25;99120.00;;;20.18;89.84
2339;BME280;1180;51.438;6.978;2023-08-06T07:20:51;99120.72;;;20.27;90.26
2339;BME280;1180;51.438;6.978;2023-08-06T07:23:22;99120.72;;;20.27;88.96
2339;BME280;1180;51.438;6.978;2023-08-06T07:25:48;99123.31;;;20.27;89.28
2339;BME280;1180;51.438;6.978;2023-08-06T07:28:14;99127.72;;;20.27;88.58
2339;BME280;1180;51.438;6.978;2023-08-06T07:30:41;99123.94;;;20.29;90.78
2339;BME280;1180;51.438;6.978;2023-08-06T07:33:06;99130.19;;;20.35;90.45
2339;BME280;1180;51.438;6.978;2023-08-06T07:35:33;99130.50;;;20.40;90.24
2339;BME280;1180;51.438;6.978;2023-08-06T07:37:58;99132.16;;;20.48;90.93
2339;BME280;1180;51.438;6.978;2023-08-06T07:40:24;99126.22;;;20.54;90.39
2339;BME280;1180;51.438;6.978;2023-08-06T07:42:50;99130.09;;;20.58;85.81
2339;BME280;1180;51.438;6.978;2023-08-06T07:45:15;99131.53;;;20.46;84.38
2339;BME280;1180;51.438;6.978;2023-08-06T07:47:41;99132.78;;;20.50;86.39
2339;BME280;1180;51.438;6.978;2023-08-06T07:50:08;99141.84;;;20.54;88.16
2339;BME280;1180;51.438;6.978;2023-08-06T07:52:34;99137.34;;;20.63;87.35
2339;BME280;1180;51.438;6.978;2023-08-06T07:55:00;99141.38;;;20.66;85.25
2339;BME280;1180;51.438;6.978;2023-08-06T07:57:27;99141.00;;;20.69;86.41
2339;BME280;1180;51.438;6.978;2023-08-06T07:59:53;99141.25;;;20.74;83.87
2339;BME280;1180;51.438;6.978;2023-08-06T08:02:19;99143.25;;;20.72;83.07
2339;BME280;1180;51.438;6.978;2023-08-06T08:04:46;99143.88;;;20.74;83.73
2339;BME280;1180;51.438;6.978;2023-08-06T08:07:15;99148.72;;;20.77;84.22
2339;BME280;1180;51.438;6.978;2023-08-06T08:09:40;99149.28;;;20.72;84.82
2339;BME280;1180;51.438;6.978;2023-08-06T08:12:06;99151.09;;;20.57;84.57
2339;BME280;1180;51.438;6.978;2023-08-06T08:14:32;99146.38;;;20.45;84.39
2339;BME280;1180;51.438;6.978;2023-08-06T08:17:05;99152.25;;;20.32;85.38
2339;BME280;1180;51.438;6.978;2023-08-06T08:19:34;99151.66;;;20.52;86.08
2339;BME280;1180;51.438;6.978;2023-08-06T08:22:00;99158.00;;;20.64;86.48
2339;BME280;1180;51.438;6.978;2023-08-06T08:24:26;99154.13;;;20.75;86.28
2339;BME280;1180;51.438;6.978;2023-08-06T08:26:53;99150.19;;;20.64;85.73
2339;BME280;1180;51.438;6.978;2023-08-06T08:29:22;99162.03;;;20.82;85.35
2339;BME280;1180;51.438;6.978;2023-08-06T08:31:49;99152.03;;;20.86;84.53
2339;BME280;1180;51.438;6.978;2023-08-06T08:34:16;99150.88;;;20.88;83.05
2339;BME280;1180;51.438;6.978;2023-08-06T08:36:41;99157.50;;;20.91;83.61
2339;BME280;1180;51.438;6.978;2023-08-06T08:39:07;99154.41;;;21.02;84.08
2339;BME280;1180;51.438;6.978;2023-08-06T08:41:33;99160.06;;;21.06;82.46
2339;BME280;1180;51.438;6.978;2023-08-06T08:44:01;99158.72;;;20.73;83.75
2339;BME280;1180;51.438;6.978;2023-08-06T08:46:29;99151.06;;;20.87;83.85
2339;BME280;1180;51.438;6.978;2023-08-06T08:48:59;99158.50;;;20.75;80.74
2339;BME280;1180;51.438;6.978;2023-08-06T08:51:26;99159.31;;;20.90;80.85
2339;BME280;1180;51.438;6.978;2023-08-06T08:53:54;99157.34;;;20.92;77.73
2339;BME280;1180;51.438;6.978;2023-08-06T08:56:22;99162.56;;;20.92;79.00
2339;BME280;1180;51.438;6.978;2023-08-06T08:58:48;99160.78;;;20.63;76.68
2339;BME280;1180;51.438;6.978;2023-08-06T09:01:15;99156.44;;;20.70;77.07
2339;BME280;1180;51.438;6.978;2023-08-06T09:03:43;99162.97;;;20.96;77.47
2339;BME280;1180;51.438;6.978;2023-08-06T09:06:10;99166.25;;;21.05;76.68
2339;BME280;1180;51.438;6.978;2023-08-06T09:08:40;99165.13;;;21.14;76.66
2339;BME280;1180;51.438;6.978;2023-08-06T09:11:09;99165.44;;;21.26;76.12
2339;BME280;1180;51.438;6.978;2023-08-06T09:13:37;99171.59;;;21.18;76.54
2339;BME280;1180;51.438;6.978;2023-08-06T09:16:03;99164.41;;;20.99;75.82
2339;BME280;1180;51.438;6.978;2023-08-06T09:18:30;99173.59;;;21.16;76.25
2339;BME280;1180;51.438;6.978;2023-08-06T09:20:56;99174.56;;;21.15;75.09
2339;BME280;1180;51.438;6.978;2023-08-06T09:23:29;99173.84;;;21.21;74.27
2339;BME280;1180;51.438;6.978;2023-08-06T09:25:57;99178.97;;;21.36;75.76
2339;BME280;1180;51.438;6.978;2023-08-06T09:28:23;99175.44;;;21.44;75.77
2339;BME280;1180;51.438;6.978;2023-08-06T09:30:49;99181.00;;;21.13;77.40
2339;BME280;1180;51.438;6.978;2023-08-06T09:33:18;99180.47;;;21.02;78.81
2339;BME280;1180;51.438;6.978;2023-08-06T09:35:46;99178.38;;;20.76;80.12
2339;BME280;1180;51.438;6.978;2023-08-06T09:38:12;99180.81;;;20.77;80.44
2339;BME280;1180;51.438;6.978;2023-08-06T09:40:38;99184.41;;;20.76;80.61
2339;BME280;1180;51.438;6.978;2023-08-06T09:43:05;99186.94;;;20.85;82.21
2339;BME280;1180;51.438;6.978;2023-08-06T09:45:35;99191.25;;;20.77;81.10
2339;BME280;1180;51.438;6.978;2023-08-06T09:48:08;99191.28;;;20.99;81.22
2339;BME280;1180;51.438;6.978;2023-08-06T09:50:36;99192.69;;;20.80;80.60
2339;BME280;1180;51.438;6.978;2023-08-06T09:53:06;99198.59;;;20.89;82.49
2339;BME280;1180;51.438;6.978;2023-08-06T09:55:33;99188.78;;;20.91;83.11
2339;BME280;1180;51.438;6.978;2023-08-06T09:57:59;99194.72;;;21.00;83.46
2339;BME280;1180;51.438;6.978;2023-08-06T10:00:25;99197.34;;;21.21;83.81
2339;BME280;1180;51.438;6.978;2023-08-06T10:02:52;99199.97;;;21.28;83.37
2339;BME280;1180;51.438;6.978;2023-08-06T10:05:21;99203.72;;;21.41;81.50
2339;BME280;1180;51.438;6.978;2023-08-06T10:07:48;99202.78;;;21.27;82.43
2339;BME280;1180;51.438;6.978;2023-08-06T10:10:14;99203.53;;;20.99;84.87
2339;BME280;1180;51.438;6.978;2023-08-06T10:12:44;99200.56;;;21.24;84.40
2339;BME280;1180;51.438;6.978;2023-08-06T10:15:14;99201.81;;;21.28;83.38
2339;BME280;1180;51.438;6.978;2023-08-06T10:17:42;99197.16;;;21.52;83.04
2339;BME280;1180;51.438;6.978;2023-08-06T10:20:09;99193.94;;;21.71;81.78
2339;BME280;1180;51.438;6.978;2023-08-06T10:22:35;99196.41;;;21.79;80.20
2339;BME280;1180;51.438;6.978;2023-08-06T10:25:02;99195.63;;;21.86;79.99
2339;BME280;1180;51.438;6.978;2023-08-06T10:27:40;99201.53;;;21.66;75.59
2339;BME280;1180;51.438;6.978;2023-08-06T10:30:26;99199.16;;;21.71;74.91
2339;BME280;1180;51.438;6.978;2023-08-06T10:32:54;99194.63;;;21.87;73.37
2339;BME280;1180;51.438;6.978;2023-08-06T10:35:48;99197.06;;;21.88;72.68
2339;BME280;1180;51.438;6.978;2023-08-06T10:38:20;99202.78;;;22.05;73.39
2339;BME280;1180;51.438;6.978;2023-08-06T10:46:00;99202.41;;;22.08;73.46
2339;BME280;1180;51.438;6.978;2023-08-06T10:48:41;99203.34;;;22.01;72.76
2339;BME280;1180;51.438;6.978;2023-08-06T10:51:11;99202.88;;;21.62;73.43
2339;BME280;1180;51.438;6.978;2023-08-06T10:53:49;99211.88;;;21.59;76.67
2339;BME280;1180;51.438;6.978;2023-08-06T10:56:17;99211.59;;;21.69;76.79
2339;BME280;1180;51.438;6.978;2023-08-06T10:58:45;99219.13;;;21.86;76.47
2339;BME280;1180;51.438;6.978;2023-08-06T11:01:11;99208.63;;;22.07;75.21
2339;BME280;1180;51.438;6.978;2023-08-06T11:03:39;99213.19;;;21.99;75.35
2339;BME280;1180;51.438;6.978;2023-08-06T11:06:09;99217.78;;;22.25;74.94
2339;BME280;1180;51.438;6.978;2023-08-06T11:08:37;99214.97;;;22.27;73.58
2339;BME280;1180;51.438;6.978;2023-08-06T11:11:14;99208.56;;;22.29;74.01
2339;BME280;1180;51.438;6.978;2023-08-06T11:13:41;99221.00;;;22.27;74.63
2339;BME280;1180;51.438;6.978;2023-08-06T11:16:08;99215.31;;;22.17;77.16
2339;BME280;1180;51.438;6.978;2023-08-06T11:18:34;99215.75;;;22.20;77.12
2339;BME280;1180;51.438;6.978;2023-08-06T11:21:00;99228.31;;;22.03;77.70
2339;BME280;1180;51.438;6.978;2023-08-06T11:23:27;99235.09;;;21.98;78.06
2339;BME280;1180;51.438;6.978;2023-08-06T11:25:57;99230.09;;;21.74;78.03
2339;BME280;1180;51.438;6.978;2023-08-06T11:28:23;99243.94;;;21.25;79.72
2339;BME280;1180;51.438;6.978;2023-08-06T11:30:50;99245.38;;;20.90;83.28
2339;BME280;1180;51.438;6.978;2023-08-06T11:33:26;99255.34;;;20.72;83.75
2339;BME280;1180;51.438;6.978;2023-08-06T11:35:52;99248.72;;;20.39;85.16
2339;BME280;1180;51.438;6.978;2023-08-06T11:38:19;99255.34;;;20.12;86.79
2339;BME280;1180;51.438;6.978;2023-08-06T11:40:45;99263.59;;;20.00;89.44
2339;BME280;1180;51.438;6.978;2023-08-06T11:43:12;99265.97;;;19.63;90.13
2339;BME280;1180;51.438;6.978;2023-08-06T11:45:38;99264.66;;;19.21;94.78
2339;BME280;1180;51.438;6.978;2023-08-06T11:48:05;99270.84;;;19.43;95.31
2339;BME280;1180;51.438;6.978;2023-08-06T11:50:31;99286.84;;;19.32;96.73
2339;BME280;1180;51.438;6.978;2023-08-06T11:53:00;99281.38;;;19.27;97.85
2339;BME280;1180;51.438;6.978;2023-08-06T11:55:27;99287.81;;;18.99;96.49
2339;BME280;1180;51.438;6.978;2023-08-06T11:57:56;99294.72;;;19.15;96.72
2339;BME280;1180;51.438;6.978;2023-08-06T12:00:26;99296.13;;;18.86;97.72
2339;BME280;1180;51.438;6.978;2023-08-06T12:02:52;99309.75;;;18.48;99.95
2339;BME280;1180;51.438;6.978;2023-08-06T12:05:23;99304.09;;;18.28;100.00
2339;BME280;1180;51.438;6.978;2023-08-06T12:07:51;99307.44;;;18.62;100.00
2339;BME280;1180;51.438;6.978;2023-08-06T12:10:19;99303.41;;;18.59;100.00
2339;BME280;1180;51.438;6.978;2023-08-06T12:12:45;99307.16;;;18.48;100.00
2339;BME280;1180;51.438;6.978;2023-08-06T12:15:11;99303.09;;;18.46;100.00
2339;BME280;1180;51.438;6.978;2023-08-06T12:17:38;99314.28;;;18.55;100.00
2339;BME280;1180;51.438;6.978;2023-08-06T12:20:04;99310.38;;;18.51;100.00
2339;BME280;1180;51.438;6.978;2023-08-06T12:22:31;99320.47;;;18.37;100.00
2339;BME280;1180;51.438;6.978;2023-08-06T12:25:03;99305.88;;;18.44;100.00
2339;BME280;1180;51.438;6.978;2023-08-06T12:27:36;99314.63;;;18.43;100.00
2339;BME280;1180;51.438;6.978;2023-08-06T12:30:03;99318.03;;;18.36;100.00
2339;BME280;1180;51.438;6.978;2023-08-06T12:32:31;99323.09;;;18.21;100.00
2339;BME280;1180;51.438;6.978;2023-08-06T12:34:57;99323.09;;;18.12;99.10
2339;BME280;1180;51.438;6.978;2023-08-06T12:37:24;99335.56;;;18.17;100.00
2339;BME280;1180;51.438;6.978;2023-08-06T12:39:51;99339.47;;;18.21;100.00
2339;BME280;1180;51.438;6.978;2023-08-06T12:42:16;99347.28;;;18.04;100.00
2339;BME280;1180;51.438;6.978;2023-08-06T12:44:42;99337.31;;;17.67;100.00
2339;BME280;1180;51.438;6.978;2023-08-06T12:47:08;99334.25;;;17.71;100.00
2339;BME280;1180;51.438;6.978;2023-08-06T12:49:34;99345.13;;;18.00;100.00
2339;BME280;1180;51.438;6.978;2023-08-06T12:52:00;99350.19;;;18.10;100.00
2339;BME280;1180;51.438;6.978;2023-08-06T12:54:26;99358.81;;;18.18;100.00
2339;BME280;1180;51.438;6.978;2023-08-06T12:56:52;99362.84;;;18.21;100.00
2339;BME280;1180;51.438;6.978;2023-08-06T12:59:18;99351.47;;;18.22;100.00
2339;BME280;1180;51.438;6.978;2023-08-06T13:01:44;99354.22;;;18.37;100.00
2339;BME280;1180;51.438;6.978;2023-08-06T13:04:11;99363.00;;;18.36;100.00
2339;BME280;1180;51.438;6.978;2023-08-06T13:06:37;99377.63;;;18.21;100.00
2339;BME280;1180;51.438;6.978;2023-08-06T13:09:09;99362.34;;;18.26;100.00
2339;BME280;1180;51.438;6.978;2023-08-06T13:11:37;99378.72;;;18.51;100.00
2339;BME280;1180;51.438;6.978;2023-08-06T13:14:09;99375.34;;;18.51;100.00
2339;BME280;1180;51.438;6.978;2023-08-06T13:16:36;99380.03;;;18.64;100.00
2339;BME280;1180;51.438;6.978;2023-08-06T13:19:02;99386.53;;;18.51;100.00
2339;BME280;1180;51.438;6.978;2023-08-06T13:22:14;99392.72;;;18.58;100.00
2339;BME280;1180;51.438;6.978;2023-08-06T13:24:21;99394.78;;;18.63;100.00